sensor_id;sensor_type;location;lat;lon;timestamp;P1;durP1;ratioP1;P2;durP2;ratioP2
21034;SDS011;10676;50.848;3.272;2023-06-04T00:00:48;22.98;;;21.40;;
21034;SDS011;10676;50.848;3.272;2023-06-04T00:03:14;22.23;;;20.77;;
21034;SDS011;10676;50.848;3.272;2023-06-04T00:05:40;19.17;;;18.08;;
21034;SDS011;10676;50.848;3.272;2023-06-04T00:08:09;19.83;;;18.42;;
21034;SDS011;10676;50.848;3.272;2023-06-04T00:10:35;20.38;;;18.95;;
21034;SDS011;10676;50.848;3.272;2023-06-04T00:13:01;20.55;;;18.95;;
21034;SDS011;10676;50.848;3.272;2023-06-04T00:15:29;22.50;;;20.90;;
21034;SDS011;10676;50.848;3.272;2023-06-04T00:17:54;20.90;;;19.52;;
21034;SDS011;10676;50.848;3.272;2023-06-04T00:22:50;1505.95;;;755.58;;
21034;SDS011;10676;50.848;3.272;2023-06-04T00:25:15;1506.03;;;755.60;;
21034;SDS011;10676;50.848;3.272;2023-06-04T00:27:42;514.95;;;264.05;;
21034;SDS011;10676;50.848;3.272;2023-06-04T00:30:08;1999.90;;;999.90;;
21034;SDS011;10676;50.848;3.272;2023-06-04T00:32:35;1999.90;;;999.90;;
21034;SDS011;10676;50.848;3.272;2023-06-04T00:35:01;1999.90;;;999.90;;
21034;SDS011;10676;50.848;3.272;2023-06-04T00:37:28;1999.90;;;999.90;;
21034;SDS011;10676;50.848;3.272;2023-06-04T00:39:54;1999.90;;;999.90;;
21034;SDS011;10676;50.848;3.272;2023-06-04T00:42:20;1999.90;;;999.90;;
21034;SDS011;10676;50.848;3.272;2023-06-04T00:44:48;22.35;;;20.70;;
21034;SDS011;10676;50.848;3.272;2023-06-04T00:47:14;21.35;;;19.70;;
21034;SDS011;10676;50.848;3.272;2023-06-04T00:49:43;21.23;;;19.83;;
21034;SDS011;10676;50.848;3.272;2023-06-04T00:52:09;20.88;;;19.63;;
21034;SDS011;10676;50.848;3.272;2023-06-04T00:54:42;21.38;;;19.80;;
21034;SDS011;10676;50.848;3.272;2023-06-04T00:57:08;19.30;;;17.95;;
21034;SDS011;10676;50.848;3.272;2023-06-04T00:59:35;25.05;;;23.17;;
21034;SDS011;10676;50.848;3.272;2023-06-04T01:02:06;24.15;;;22.35;;
21034;SDS011;10676;50.848;3.272;2023-06-04T01:04:50;21.05;;;19.27;;
21034;SDS011;10676;50.848;3.272;2023-06-04T01:07:27;26.75;;;24.60;;
21034;SDS011;10676;50.848;3.272;2023-06-04T01:09:55;20.33;;;18.80;;
21034;SDS011;10676;50.848;3.272;2023-06-04T01:12:21;20.35;;;18.88;;
21034;SDS011;10676;50.848;3.272;2023-06-04T01:14:46;23.05;;;21.42;;
21034;SDS011;10676;50.848;3.272;2023-06-04T01:17:23;30.70;;;28.38;;
21034;SDS011;10676;50.848;3.272;2023-06-04T01:20:05;20.52;;;19.08;;
21034;SDS011;10676;50.848;3.272;2023-06-04T01:25:39;20.83;;;19.25;;
21034;SDS011;10676;50.848;3.272;2023-06-04T01:28:11;19.17;;;17.55;;
21034;SDS011;10676;50.848;3.272;2023-06-04T01:30:38;18.92;;;17.70;;
21034;SDS011;10676;50.848;3.272;2023-06-04T01:33:08;19.90;;;18.25;;
21034;SDS011;10676;50.848;3.272;2023-06-04T01:35:36;19.27;;;17.98;;
21034;SDS011;10676;50.848;3.272;2023-06-04T01:38:02;21.58;;;19.60;;
21034;SDS011;10676;50.848;3.272;2023-06-04T01:40:32;17.70;;;16.38;;
21034;SDS011;10676;50.848;3.272;2023-06-04T01:42:58;16.73;;;15.30;;
21034;SDS011;10676;50.848;3.272;2023-06-04T01:45:25;15.43;;;14.25;;
21034;SDS011;10676;50.848;3.272;2023-06-04T01:48:00;14.70;;;13.40;;
21034;SDS011;10676;50.848;3.272;2023-06-04T01:50:28;14.00;;;12.95;;
21034;SDS011;10676;50.848;3.272;2023-06-04T01:52:53;13.65;;;12.55;;
21034;SDS011;10676;50.848;3.272;2023-06-04T01:55:19;14.63;;;13.32;;
21034;SDS011;10676;50.848;3.272;2023-06-04T01:57:45;19.60;;;18.15;;
21034;SDS011;10676;50.848;3.272;2023-06-04T02:00:18;16.98;;;15.73;;
21034;SDS011;10676;50.848;3.272;2023-06-04T02:02:44;18.85;;;17.65;;
21034;SDS011;10676;50.848;3.272;2023-06-04T02:05:11;17.10;;;15.50;;
21034;SDS011;10676;50.848;3.272;2023-06-04T02:07:37;14.65;;;13.45;;
21034;SDS011;10676;50.848;3.272;2023-06-04T02:10:05;12.85;;;11.85;;
21034;SDS011;10676;50.848;3.272;2023-06-04T02:12:36;12.48;;;11.57;;
21034;SDS011;10676;50.848;3.272;2023-06-04T02:15:09;12.80;;;11.77;;
21034;SDS011;10676;50.848;3.272;2023-06-04T02:17:35;12.77;;;11.75;;
21034;SDS011;10676;50.848;3.272;2023-06-04T02:20:07;12.95;;;11.85;;
21034;SDS011;10676;50.848;3.272;2023-06-04T02:22:34;13.70;;;12.80;;
21034;SDS011;10676;50.848;3.272;2023-06-04T02:25:00;13.18;;;12.07;;
21034;SDS011;10676;50.848;3.272;2023-06-04T02:27:26;14.10;;;12.93;;
21034;SDS011;10676;50.848;3.272;2023-06-04T02:29:54;13.68;;;12.68;;
21034;SDS011;10676;50.848;3.272;2023-06-04T02:32:20;13.98;;;12.63;;
21034;SDS011;10676;50.848;3.272;2023-06-04T02:34:45;12.30;;;11.23;;
21034;SDS011;10676;50.848;3.272;2023-06-04T02:37:11;13.27;;;11.98;;
21034;SDS011;10676;50.848;3.272;2023-06-04T02:39:37;11.88;;;10.77;;
21034;SDS011;10676;50.848;3.272;2023-06-04T02:42:03;12.35;;;11.35;;
21034;SDS011;10676;50.848;3.272;2023-06-04T02:44:28;12.77;;;11.68;;
21034;SDS011;10676;50.848;3.272;2023-06-04T02:46:55;11.50;;;10.50;;
21034;SDS011;10676;50.848;3.272;2023-06-04T02:49:21;11.23;;;10.10;;
21034;SDS011;10676;50.848;3.272;2023-06-04T02:51:47;22.17;;;20.55;;
21034;SDS011;10676;50.848;3.272;2023-06-04T02:54:13;11.60;;;10.60;;
21034;SDS011;10676;50.848;3.272;2023-06-04T02:56:45;12.65;;;10.40;;
21034;SDS011;10676;50.848;3.272;2023-06-04T02:59:11;12.48;;;11.30;;
21034;SDS011;10676;50.848;3.272;2023-06-04T03:01:36;13.40;;;12.30;;
21034;SDS011;10676;50.848;3.272;2023-06-04T03:04:02;14.70;;;13.30;;
21034;SDS011;10676;50.848;3.272;2023-06-04T03:08:59;18.95;;;17.08;;
21034;SDS011;10676;50.848;3.272;2023-06-04T03:11:27;17.23;;;15.85;;
21034;SDS011;10676;50.848;3.272;2023-06-04T03:13:53;16.33;;;15.02;;
21034;SDS011;10676;50.848;3.272;2023-06-04T03:16:19;19.05;;;17.38;;
21034;SDS011;10676;50.848;3.272;2023-06-04T03:18:47;19.40;;;17.85;;
21034;SDS011;10676;50.848;3.272;2023-06-04T03:21:12;19.27;;;17.25;;
21034;SDS011;10676;50.848;3.272;2023-06-04T03:23:43;20.30;;;18.80;;
21034;SDS011;10676;50.848;3.272;2023-06-04T03:26:09;20.73;;;18.85;;
21034;SDS011;10676;50.848;3.272;2023-06-04T03:28:39;18.13;;;16.48;;
21034;SDS011;10676;50.848;3.272;2023-06-04T03:31:05;20.73;;;18.98;;
21034;SDS011;10676;50.848;3.272;2023-06-04T03:33:31;20.17;;;18.45;;
21034;SDS011;10676;50.848;3.272;2023-06-04T03:35:59;19.35;;;17.67;;
21034;SDS011;10676;50.848;3.272;2023-06-04T03:38:25;19.15;;;17.27;;
21034;SDS011;10676;50.848;3.272;2023-06-04T03:40:51;16.42;;;15.00;;
21034;SDS011;10676;50.848;3.272;2023-06-04T03:43:18;14.18;;;12.18;;
21034;SDS011;10676;50.848;3.272;2023-06-04T03:45:50;13.25;;;11.95;;
21034;SDS011;10676;50.848;3.272;2023-06-04T03:48:15;12.48;;;11.30;;
21034;SDS011;10676;50.848;3.272;2023-06-04T03:50:41;13.00;;;11.70;;
21034;SDS011;10676;50.848;3.272;2023-06-04T03:53:07;12.07;;;10.80;;
21034;SDS011;10676;50.848;3.272;2023-06-04T03:55:33;14.02;;;11.32;;
21034;SDS011;10676;50.848;3.272;2023-06-04T03:58:01;13.70;;;11.82;;
21034;SDS011;10676;50.848;3.272;2023-06-04T04:00:27;14.52;;;12.77;;
21034;SDS011;10676;50.848;3.272;2023-06-04T04:02:53;15.10;;;13.82;;
21034;SDS011;10676;50.848;3.272;2023-06-04T04:05:21;16.40;;;14.88;;
21034;SDS011;10676;50.848;3.272;2023-06-04T04:07:47;13.10;;;12.00;;
21034;SDS011;10676;50.848;3.272;2023-06-04T04:10:13;16.83;;;15.38;;
21034;SDS011;10676;50.848;3.272;2023-06-04T04:12:38;17.95;;;16.05;;
21034;SDS011;10676;50.848;3.272;2023-06-04T04:15:04;14.10;;;12.73;;
21034;SDS011;10676;50.848;3.272;2023-06-04T04:17:30;18.67;;;17.05;;
21034;SDS011;10676;50.848;3.272;2023-06-04T04:19:56;17.67;;;16.10;;
21034;SDS011;10676;50.848;3.272;2023-06-04T04:22:21;17.40;;;16.02;;
21034;SDS011;10676;50.848;3.272;2023-06-04T04:24:47;15.15;;;14.05;;
21034;SDS011;10676;50.848;3.272;2023-06-04T04:27:15;17.33;;;15.35;;
21034;SDS011;10676;50.848;3.272;2023-06-04T04:29:41;18.23;;;16.50;;
21034;SDS011;10676;50.848;3.272;2023-06-04T04:32:08;17.15;;;15.65;;
21034;SDS011;10676;50.848;3.272;2023-06-04T04:34:37;18.75;;;17.40;;
21034;SDS011;10676;50.848;3.272;2023-06-04T04:37:08;15.93;;;14.73;;
21034;SDS011;10676;50.848;3.272;2023-06-04T04:39:34;16.92;;;15.63;;
21034;SDS011;10676;50.848;3.272;2023-06-04T04:42:03;16.02;;;14.82;;
21034;SDS011;10676;50.848;3.272;2023-06-04T04:44:29;17.25;;;16.05;;
21034;SDS011;10676;50.848;3.272;2023-06-04T04:46:55;17.13;;;15.93;;
21034;SDS011;10676;50.848;3.272;2023-06-04T04:49:21;18.70;;;17.15;;
21034;SDS011;10676;50.848;3.272;2023-06-04T04:51:47;17.42;;;16.02;;
21034;SDS011;10676;50.848;3.272;2023-06-04T04:54:29;18.15;;;16.65;;
21034;SDS011;10676;50.848;3.272;2023-06-04T04:56:54;19.15;;;17.33;;
21034;SDS011;10676;50.848;3.272;2023-06-04T04:59:21;20.33;;;18.92;;
21034;SDS011;10676;50.848;3.272;2023-06-04T05:01:47;22.38;;;20.95;;
21034;SDS011;10676;50.848;3.272;2023-06-04T05:04:12;21.70;;;20.23;;
21034;SDS011;10676;50.848;3.272;2023-06-04T05:06:38;23.33;;;21.63;;
21034;SDS011;10676;50.848;3.272;2023-06-04T05:09:05;21.55;;;20.10;;
21034;SDS011;10676;50.848;3.272;2023-06-04T05:11:32;24.13;;;22.20;;
21034;SDS011;10676;50.848;3.272;2023-06-04T05:13:58;24.90;;;22.98;;
21034;SDS011;10676;50.848;3.272;2023-06-04T05:16:24;21.23;;;19.52;;
21034;SDS011;10676;50.848;3.272;2023-06-04T05:18:52;1999.90;;;999.90;;
21034;SDS011;10676;50.848;3.272;2023-06-04T05:21:21;1999.90;;;999.90;;
21034;SDS011;10676;50.848;3.272;2023-06-04T05:23:47;1999.90;;;999.90;;
21034;SDS011;10676;50.848;3.272;2023-06-04T05:26:13;1999.90;;;999.90;;
21034;SDS011;10676;50.848;3.272;2023-06-04T05:28:39;1999.90;;;999.90;;
21034;SDS011;10676;50.848;3.272;2023-06-04T05:31:08;1999.90;;;999.90;;
21034;SDS011;10676;50.848;3.272;2023-06-04T05:33:34;1999.90;;;999.90;;
21034;SDS011;10676;50.848;3.272;2023-06-04T05:36:00;1999.90;;;999.90;;
21034;SDS011;10676;50.848;3.272;2023-06-04T05:38:26;1999.90;;;999.90;;
21034;SDS011;10676;50.848;3.272;2023-06-04T05:40:56;1999.90;;;999.90;;
21034;SDS011;10676;50.848;3.272;2023-06-04T05:43:22;1999.90;;;999.90;;
21034;SDS011;10676;50.848;3.272;2023-06-04T05:45:52;1999.90;;;999.90;;
21034;SDS011;10676;50.848;3.272;2023-06-04T05:48:17;1999.90;;;999.90;;
21034;SDS011;10676;50.848;3.272;2023-06-04T05:50:44;1999.90;;;999.90;;
21034;SDS011;10676;50.848;3.272;2023-06-04T05:53:10;1999.90;;;999.90;;
21034;SDS011;10676;50.848;3.272;2023-06-04T05:55:36;1999.90;;;999.90;;
21034;SDS011;10676;50.848;3.272;2023-06-04T05:58:01;1999.90;;;999.90;;
21034;SDS011;10676;50.848;3.272;2023-06-04T06:00:27;1999.90;;;999.90;;
21034;SDS011;10676;50.848;3.272;2023-06-04T06:02:53;1999.90;;;999.90;;
21034;SDS011;10676;50.848;3.272;2023-06-04T06:05:20;1999.90;;;999.90;;
21034;SDS011;10676;50.848;3.272;2023-06-04T06:07:46;1999.90;;;999.90;;
21034;SDS011;10676;50.848;3.272;2023-06-04T06:10:12;1999.90;;;999.90;;
21034;SDS011;10676;50.848;3.272;2023-06-04T06:12:43;1999.90;;;999.90;;
21034;SDS011;10676;50.848;3.272;2023-06-04T06:15:09;1999.90;;;999.90;;
21034;SDS011;10676;50.848;3.272;2023-06-04T06:17:35;1999.90;;;999.90;;
21034;SDS011;10676;50.848;3.272;2023-06-04T06:20:04;1999.90;;;999.90;;
21034;SDS011;10676;50.848;3.272;2023-06-04T06:22:33;1999.90;;;999.90;;
21034;SDS011;10676;50.848;3.272;2023-06-04T06:25:00;1999.90;;;999.90;;
21034;SDS011;10676;50.848;3.272;2023-06-04T06:27:26;1999.90;;;999.90;;
21034;SDS011;10676;50.848;3.272;2023-06-04T06:29:52;1999.90;;;999.90;;
21034;SDS011;10676;50.848;3.272;2023-06-04T06:32:17;1999.90;;;999.90;;
21034;SDS011;10676;50.848;3.272;2023-06-04T06:34:43;1999.90;;;999.90;;
21034;SDS011;10676;50.848;3.272;2023-06-04T06:37:09;1999.90;;;999.90;;
21034;SDS011;10676;50.848;3.272;2023-06-04T06:39:34;1999.90;;;999.90;;
21034;SDS011;10676;50.848;3.272;2023-06-04T06:42:02;1999.90;;;999.90;;
21034;SDS011;10676;50.848;3.272;2023-06-04T06:44:28;1999.90;;;999.90;;
21034;SDS011;10676;50.848;3.272;2023-06-04T06:46:55;1999.90;;;999.90;;
21034;SDS011;10676;50.848;3.272;2023-06-04T06:49:21;1999.90;;;999.90;;
21034;SDS011;10676;50.848;3.272;2023-06-04T06:51:46;1999.90;;;999.90;;
21034;SDS011;10676;50.848;3.272;2023-06-04T06:54:14;1999.90;;;999.90;;
21034;SDS011;10676;50.848;3.272;2023-06-04T06:56:46;1999.90;;;999.90;;
21034;SDS011;10676;50.848;3.272;2023-06-04T06:59:15;1999.90;;;999.90;;
21034;SDS011;10676;50.848;3.272;2023-06-04T07:01:41;1999.90;;;999.90;;
21034;SDS011;10676;50.848;3.272;2023-06-04T07:04:07;1008.72;;;508.13;;
21034;SDS011;10676;50.848;3.272;2023-06-04T07:06:33;513.38;;;262.55;;
21034;SDS011;10676;50.848;3.272;2023-06-04T07:09:01;1999.90;;;999.90;;
21034;SDS011;10676;50.848;3.272;2023-06-04T07:11:26;1008.38;;;507.90;;
21034;SDS011;10676;50.848;3.272;2023-06-04T07:13:52;1999.90;;;999.90;;
21034;SDS011;10676;50.848;3.272;2023-06-04T07:16:19;1999.90;;;999.90;;
21034;SDS011;10676;50.848;3.272;2023-06-04T07:18:47;1999.90;;;999.90;;
21034;SDS011;10676;50.848;3.272;2023-06-04T07:21:16;17.92;;;16.77;;
21034;SDS011;10676;50.848;3.272;2023-06-04T07:23:44;17.83;;;16.60;;
21034;SDS011;10676;50.848;3.272;2023-06-04T07:26:12;17.30;;;16.33;;
21034;SDS011;10676;50.848;3.272;2023-06-04T07:28:39;18.23;;;17.00;;
21034;SDS011;10676;50.848;3.272;2023-06-04T07:31:04;18.70;;;17.33;;
21034;SDS011;10676;50.848;3.272;2023-06-04T07:33:32;16.98;;;15.85;;
21034;SDS011;10676;50.848;3.272;2023-06-04T07:35:58;16.83;;;15.82;;
21034;SDS011;10676;50.848;3.272;2023-06-04T07:38:32;16.90;;;16.00;;
21034;SDS011;10676;50.848;3.272;2023-06-04T07:40:57;15.88;;;14.90;;
21034;SDS011;10676;50.848;3.272;2023-06-04T07:43:23;17.48;;;16.17;;
21034;SDS011;10676;50.848;3.272;2023-06-04T07:45:49;17.13;;;16.13;;
21034;SDS011;10676;50.848;3.272;2023-06-04T07:48:15;16.00;;;15.00;;
21034;SDS011;10676;50.848;3.272;2023-06-04T07:50:42;15.68;;;14.80;;
21034;SDS011;10676;50.848;3.272;2023-06-04T07:53:07;16.17;;;15.18;;
21034;SDS011;10676;50.848;3.272;2023-06-04T07:58:05;15.52;;;14.63;;
21034;SDS011;10676;50.848;3.272;2023-06-04T08:00:31;16.02;;;15.13;;
21034;SDS011;10676;50.848;3.272;2023-06-04T08:02:57;16.10;;;15.15;;
21034;SDS011;10676;50.848;3.272;2023-06-04T08:05:22;18.25;;;16.83;;
21034;SDS011;10676;50.848;3.272;2023-06-04T08:07:48;17.25;;;16.35;;
21034;SDS011;10676;50.848;3.272;2023-06-04T08:10:14;15.63;;;14.70;;
21034;SDS011;10676;50.848;3.272;2023-06-04T08:12:39;15.13;;;14.10;;
21034;SDS011;10676;50.848;3.272;2023-06-04T08:15:05;15.60;;;14.70;;
21034;SDS011;10676;50.848;3.272;2023-06-04T08:17:31;13.88;;;13.10;;
21034;SDS011;10676;50.848;3.272;2023-06-04T08:19:57;12.52;;;11.73;;
21034;SDS011;10676;50.848;3.272;2023-06-04T08:22:22;14.18;;;13.45;;
21034;SDS011;10676;50.848;3.272;2023-06-04T08:24:48;13.85;;;13.15;;
21034;SDS011;10676;50.848;3.272;2023-06-04T08:27:14;14.00;;;13.30;;
21034;SDS011;10676;50.848;3.272;2023-06-04T08:29:39;14.18;;;13.10;;
21034;SDS011;10676;50.848;3.272;2023-06-04T08:32:05;13.73;;;13.02;;
21034;SDS011;10676;50.848;3.272;2023-06-04T08:34:32;14.55;;;13.75;;
21034;SDS011;10676;50.848;3.272;2023-06-04T08:36:58;14.35;;;13.55;;
21034;SDS011;10676;50.848;3.272;2023-06-04T08:39:24;14.90;;;14.02;;
21034;SDS011;10676;50.848;3.272;2023-06-04T08:41:51;14.68;;;13.98;;
21034;SDS011;10676;50.848;3.272;2023-06-04T08:44:19;15.52;;;14.73;;
21034;SDS011;10676;50.848;3.272;2023-06-04T08:46:45;14.93;;;14.13;;
21034;SDS011;10676;50.848;3.272;2023-06-04T08:49:16;14.70;;;13.95;;
21034;SDS011;10676;50.848;3.272;2023-06-04T08:51:43;14.75;;;13.88;;
21034;SDS011;10676;50.848;3.272;2023-06-04T08:54:09;14.40;;;13.70;;
21034;SDS011;10676;50.848;3.272;2023-06-04T08:56:35;15.13;;;14.18;;
21034;SDS011;10676;50.848;3.272;2023-06-04T08:59:05;14.57;;;13.82;;
21034;SDS011;10676;50.848;3.272;2023-06-04T09:01:34;14.75;;;13.93;;
21034;SDS011;10676;50.848;3.272;2023-06-04T09:04:04;12.77;;;11.90;;
21034;SDS011;10676;50.848;3.272;2023-06-04T09:06:32;13.77;;;13.05;;
21034;SDS011;10676;50.848;3.272;2023-06-04T09:08:58;12.48;;;11.88;;
21034;SDS011;10676;50.848;3.272;2023-06-04T09:11:36;13.40;;;12.80;;
21034;SDS011;10676;50.848;3.272;2023-06-04T09:14:09;13.25;;;12.55;;
21034;SDS011;10676;50.848;3.272;2023-06-04T09:16:45;13.65;;;12.85;;
21034;SDS011;10676;50.848;3.272;2023-06-04T09:19:13;14.00;;;13.18;;
21034;SDS011;10676;50.848;3.272;2023-06-04T09:21:46;13.98;;;13.27;;
21034;SDS011;10676;50.848;3.272;2023-06-04T09:24:15;14.18;;;13.15;;
21034;SDS011;10676;50.848;3.272;2023-06-04T09:26:41;13.90;;;13.10;;
21034;SDS011;10676;50.848;3.272;2023-06-04T09:29:07;13.98;;;13.27;;
21034;SDS011;10676;50.848;3.272;2023-06-04T09:31:34;15.07;;;14.10;;
21034;SDS011;10676;50.848;3.272;2023-06-04T09:34:05;15.18;;;14.48;;
21034;SDS011;10676;50.848;3.272;2023-06-04T09:36:31;1999.90;;;999.90;;
21034;SDS011;10676;50.848;3.272;2023-06-04T09:39:14;1999.90;;;999.90;;
21034;SDS011;10676;50.848;3.272;2023-06-04T09:41:40;1999.90;;;999.90;;
21034;SDS011;10676;50.848;3.272;2023-06-04T09:44:06;1999.90;;;999.90;;
21034;SDS011;10676;50.848;3.272;2023-06-04T09:46:35;1999.90;;;999.90;;
21034;SDS011;10676;50.848;3.272;2023-06-04T09:49:02;1999.90;;;999.90;;
21034;SDS011;10676;50.848;3.272;2023-06-04T09:51:29;1999.90;;;999.90;;
21034;SDS011;10676;50.848;3.272;2023-06-04T09:53:56;1503.85;;;753.67;;
21034;SDS011;10676;50.848;3.272;2023-06-04T09:56:26;15.98;;;15.00;;
21034;SDS011;10676;50.848;3.272;2023-06-04T09:58:57;16.42;;;15.52;;
21034;SDS011;10676;50.848;3.272;2023-06-04T10:01:28;16.23;;;15.43;;
21034;SDS011;10676;50.848;3.272;2023-06-04T10:03:54;15.00;;;14.18;;
21034;SDS011;10676;50.848;3.272;2023-06-04T10:06:23;15.18;;;14.00;;
21034;SDS011;10676;50.848;3.272;2023-06-04T10:08:50;14.30;;;13.60;;
21034;SDS011;10676;50.848;3.272;2023-06-04T10:11:19;14.30;;;13.50;;
21034;SDS011;10676;50.848;3.272;2023-06-04T10:16:19;12.90;;;12.30;;
21034;SDS011;10676;50.848;3.272;2023-06-04T10:18:45;13.30;;;12.43;;
21034;SDS011;10676;50.848;3.272;2023-06-04T10:21:13;13.25;;;12.45;;
21034;SDS011;10676;50.848;3.272;2023-06-04T10:23:40;14.10;;;13.20;;
21034;SDS011;10676;50.848;3.272;2023-06-04T10:26:10;13.23;;;12.38;;
21034;SDS011;10676;50.848;3.272;2023-06-04T10:28:42;14.77;;;13.93;;
21034;SDS011;10676;50.848;3.272;2023-06-04T10:31:09;14.68;;;13.98;;
21034;SDS011;10676;50.848;3.272;2023-06-04T10:33:35;16.10;;;15.23;;
21034;SDS011;10676;50.848;3.272;2023-06-04T10:36:15;14.77;;;13.98;;
21034;SDS011;10676;50.848;3.272;2023-06-04T10:38:49;15.10;;;14.30;;
21034;SDS011;10676;50.848;3.272;2023-06-04T10:41:19;14.90;;;14.10;;
21034;SDS011;10676;50.848;3.272;2023-06-04T10:43:49;13.77;;;12.95;;
21034;SDS011;10676;50.848;3.272;2023-06-04T10:46:19;13.93;;;13.23;;
21034;SDS011;10676;50.848;3.272;2023-06-04T10:48:48;15.40;;;14.40;;
21034;SDS011;10676;50.848;3.272;2023-06-04T10:51:28;14.30;;;13.50;;
21034;SDS011;10676;50.848;3.272;2023-06-04T10:53:56;16.73;;;15.45;;
21034;SDS011;10676;50.848;3.272;2023-06-04T10:56:32;15.27;;;14.32;;
21034;SDS011;10676;50.848;3.272;2023-06-04T10:59:00;15.60;;;14.80;;
21034;SDS011;10676;50.848;3.272;2023-06-04T11:01:38;15.00;;;14.30;;
21034;SDS011;10676;50.848;3.272;2023-06-04T11:04:04;15.02;;;14.32;;
21034;SDS011;10676;50.848;3.272;2023-06-04T11:06:30;15.07;;;14.27;;
21034;SDS011;10676;50.848;3.272;2023-06-04T11:09:04;16.20;;;15.15;;
21034;SDS011;10676;50.848;3.272;2023-06-04T11:11:31;14.55;;;13.85;;
21034;SDS011;10676;50.848;3.272;2023-06-04T11:14:07;15.25;;;14.55;;
21034;SDS011;10676;50.848;3.272;2023-06-04T11:16:34;15.65;;;14.73;;
21034;SDS011;10676;50.848;3.272;2023-06-04T11:18:59;14.75;;;14.02;;
21034;SDS011;10676;50.848;3.272;2023-06-04T11:21:26;15.10;;;14.07;;
21034;SDS011;10676;50.848;3.272;2023-06-04T11:23:57;16.13;;;15.23;;
21034;SDS011;10676;50.848;3.272;2023-06-04T11:26:30;15.70;;;14.80;;
21034;SDS011;10676;50.848;3.272;2023-06-04T11:28:56;15.95;;;14.93;;
21034;SDS011;10676;50.848;3.272;2023-06-04T11:31:22;16.45;;;15.55;;
21034;SDS011;10676;50.848;3.272;2023-06-04T11:33:48;15.30;;;14.25;;
21034;SDS011;10676;50.848;3.272;2023-06-04T11:36:24;14.75;;;13.93;;
21034;SDS011;10676;50.848;3.272;2023-06-04T11:41:26;15.77;;;14.82;;
21034;SDS011;10676;50.848;3.272;2023-06-04T11:43:53;15.98;;;15.05;;
21034;SDS011;10676;50.848;3.272;2023-06-04T11:46:20;16.33;;;15.45;;
21034;SDS011;10676;50.848;3.272;2023-06-04T11:48:45;14.10;;;13.30;;
21034;SDS011;10676;50.848;3.272;2023-06-04T11:51:11;15.57;;;14.77;;
21034;SDS011;10676;50.848;3.272;2023-06-04T11:53:37;15.35;;;14.55;;
21034;SDS011;10676;50.848;3.272;2023-06-04T11:56:04;15.43;;;14.52;;
21034;SDS011;10676;50.848;3.272;2023-06-04T11:58:30;15.27;;;14.48;;
21034;SDS011;10676;50.848;3.272;2023-06-04T12:00:57;14.90;;;14.02;;
21034;SDS011;10676;50.848;3.272;2023-06-04T12:03:34;14.80;;;14.00;;
21034;SDS011;10676;50.848;3.272;2023-06-04T12:06:17;15.07;;;14.27;;
21034;SDS011;10676;50.848;3.272;2023-06-04T12:08:47;16.38;;;15.27;;
21034;SDS011;10676;50.848;3.272;2023-06-04T12:13:52;15.55;;;14.65;;
21034;SDS011;10676;50.848;3.272;2023-06-04T12:16:18;16.67;;;15.88;;
21034;SDS011;10676;50.848;3.272;2023-06-04T12:18:44;15.15;;;14.23;;
21034;SDS011;10676;50.848;3.272;2023-06-04T12:21:23;17.55;;;16.65;;
21034;SDS011;10676;50.848;3.272;2023-06-04T12:24:14;16.63;;;15.45;;
21034;SDS011;10676;50.848;3.272;2023-06-04T12:26:40;16.45;;;15.57;;
21034;SDS011;10676;50.848;3.272;2023-06-04T12:29:16;16.13;;;15.32;;
21034;SDS011;10676;50.848;3.272;2023-06-04T12:31:44;15.80;;;14.73;;
21034;SDS011;10676;50.848;3.272;2023-06-04T12:34:14;15.20;;;14.45;;
21034;SDS011;10676;50.848;3.272;2023-06-04T12:36:42;14.88;;;13.65;;
21034;SDS011;10676;50.848;3.272;2023-06-04T12:39:08;14.23;;;13.43;;
21034;SDS011;10676;50.848;3.272;2023-06-04T12:41:34;15.65;;;14.50;;
21034;SDS011;10676;50.848;3.272;2023-06-04T12:44:01;16.65;;;15.85;;
21034;SDS011;10676;50.848;3.272;2023-06-04T12:46:28;16.77;;;15.77;;
21034;SDS011;10676;50.848;3.272;2023-06-04T12:48:54;15.65;;;14.55;;
21034;SDS011;10676;50.848;3.272;2023-06-04T12:51:20;18.33;;;17.08;;
21034;SDS011;10676;50.848;3.272;2023-06-04T12:53:47;16.70;;;15.90;;
21034;SDS011;10676;50.848;3.272;2023-06-04T12:56:13;14.77;;;13.88;;
21034;SDS011;10676;50.848;3.272;2023-06-04T12:58:39;15.35;;;14.32;;
21034;SDS011;10676;50.848;3.272;2023-06-04T13:01:05;15.32;;;14.48;;
21034;SDS011;10676;50.848;3.272;2023-06-04T13:03:31;15.23;;;14.00;;
21034;SDS011;10676;50.848;3.272;2023-06-04T13:05:57;14.25;;;13.52;;
21034;SDS011;10676;50.848;3.272;2023-06-04T13:08:23;15.20;;;14.50;;
21034;SDS011;10676;50.848;3.272;2023-06-04T13:10:52;15.15;;;14.35;;
21034;SDS011;10676;50.848;3.272;2023-06-04T13:13:18;16.55;;;15.55;;
21034;SDS011;10676;50.848;3.272;2023-06-04T13:15:45;15.45;;;14.50;;
21034;SDS011;10676;50.848;3.272;2023-06-04T13:18:11;14.40;;;13.10;;
21034;SDS011;10676;50.848;3.272;2023-06-04T13:20:37;14.80;;;13.98;;
21034;SDS011;10676;50.848;3.272;2023-06-04T13:23:05;14.65;;;13.93;;
21034;SDS011;10676;50.848;3.272;2023-06-04T13:25:31;15.57;;;14.48;;
21034;SDS011;10676;50.848;3.272;2023-06-04T13:27:59;14.13;;;13.32;;
21034;SDS011;10676;50.848;3.272;2023-06-04T13:30:29;13.60;;;12.95;;
21034;SDS011;10676;50.848;3.272;2023-06-04T13:32:54;14.23;;;13.30;;
21034;SDS011;10676;50.848;3.272;2023-06-04T13:35:20;13.75;;;13.05;;
21034;SDS011;10676;50.848;3.272;2023-06-04T13:37:46;11.77;;;11.18;;
21034;SDS011;10676;50.848;3.272;2023-06-04T13:40:12;13.70;;;12.80;;
21034;SDS011;10676;50.848;3.272;2023-06-04T13:42:38;13.40;;;12.60;;
21034;SDS011;10676;50.848;3.272;2023-06-04T13:45:04;14.48;;;13.68;;
21034;SDS011;10676;50.848;3.272;2023-06-04T13:47:31;13.55;;;12.77;;
21034;SDS011;10676;50.848;3.272;2023-06-04T13:49:57;13.88;;;13.18;;
21034;SDS011;10676;50.848;3.272;2023-06-04T13:52:23;14.52;;;13.38;;
21034;SDS011;10676;50.848;3.272;2023-06-04T13:54:49;14.98;;;14.23;;
21034;SDS011;10676;50.848;3.272;2023-06-04T13:57:14;15.48;;;14.63;;
21034;SDS011;10676;50.848;3.272;2023-06-04T13:59:41;15.52;;;14.30;;
21034;SDS011;10676;50.848;3.272;2023-06-04T14:02:06;15.52;;;14.80;;
21034;SDS011;10676;50.848;3.272;2023-06-04T14:04:32;15.57;;;14.60;;
21034;SDS011;10676;50.848;3.272;2023-06-04T14:06:58;16.08;;;15.07;;
21034;SDS011;10676;50.848;3.272;2023-06-04T14:09:24;14.75;;;14.05;;
21034;SDS011;10676;50.848;3.272;2023-06-04T14:11:49;13.73;;;12.88;;
21034;SDS011;10676;50.848;3.272;2023-06-04T14:14:16;14.35;;;13.45;;
21034;SDS011;10676;50.848;3.272;2023-06-04T14:16:45;15.45;;;14.45;;
21034;SDS011;10676;50.848;3.272;2023-06-04T14:19:12;13.98;;;13.27;;
21034;SDS011;10676;50.848;3.272;2023-06-04T14:21:38;16.90;;;15.90;;
21034;SDS011;10676;50.848;3.272;2023-06-04T14:24:04;14.73;;;13.77;;
21034;SDS011;10676;50.848;3.272;2023-06-04T14:26:29;15.75;;;14.95;;
21034;SDS011;10676;50.848;3.272;2023-06-04T14:28:55;15.13;;;14.23;;
21034;SDS011;10676;50.848;3.272;2023-06-04T14:31:21;16.98;;;15.95;;
21034;SDS011;10676;50.848;3.272;2023-06-04T14:33:47;15.63;;;14.82;;